Time;durP1;ratioP1;P1;durP2;ratioP2;P2;SDS_P1;SDS_P2;PMS_P1;PMS_P2;Temp;Humidity;BMP_temperature;BMP_pressure;BME280_temperature;BME280_humidity;BME280_pressure;Samples;Min_cycle;Max_cycle;Signal;HPM_P1;HPM_P2
2020/12/16 00:01:33;;;;;;;7.75;2.60;;;;;;;6.37;99.80;99874.75;6201418;23;20008;-77
2020/12/16 00:04:04;;;;;;;13.90;3.53;;;;;;;6.37;99.68;99871.16;6200408;23;20008;-76
2020/12/16 00:06:36;;;;;;;13.70;2.88;;;;;;;6.36;99.84;99873.09;6174905;23;20058;-77
2020/12/16 00:09:04;;;;;;;11.80;3.25;;;;;;;6.34;99.63;99864.28;6174196;23;20012;-77
2020/12/16 00:11:39;;;;;;;11.95;2.80;;;;;;;6.34;99.81;99867.03;6199529;23;20004;-77
2020/12/16 00:14:08;;;;;;;9.43;2.60;;;;;;;6.33;99.69;99851.59;6201879;23;20052;-76
2020/12/16 00:16:36;;;;;;;14.15;3.00;;;;;;;6.31;99.68;99844.72;6200325;23;20027;-76
2020/12/16 00:19:02;;;;;;;10.63;2.78;;;;;;;6.30;99.68;99841.16;6199404;23;20004;-77
2020/12/16 00:21:30;;;;;;;15.38;2.50;;;;;;;6.28;99.84;99843.34;6201117;23;20363;-76
2020/12/16 00:23:56;;;;;;;10.35;2.80;;;;;;;6.26;99.88;99843.63;6198883;23;20012;-77
2020/12/16 00:26:27;;;;;;;10.23;3.25;;;;;;;6.25;99.49;99843.91;6198563;23;20008;-77
2020/12/16 00:29:08;;;;;;;7.53;2.85;;;;;;;6.24;99.73;99833.97;6200528;23;20004;-77
2020/12/16 00:31:36;;;;;;;9.35;3.00;;;;;;;6.23;99.52;99832.34;6203293;23;20524;-76
2020/12/16 00:34:02;;;;;;;10.45;3.03;;;;;;;6.23;99.44;99840.59;6199865;23;20004;-77
2020/12/16 00:36:34;;;;;;;12.00;3.05;;;;;;;6.19;99.68;99834.84;6174108;23;20012;-77
2020/12/16 00:39:00;;;;;;;8.68;2.78;;;;;;;6.18;99.70;99843.38;6225725;23;20015;-77
2020/12/16 00:41:30;;;;;;;8.90;2.95;;;;;;;6.16;99.59;99845.63;6198912;23;20008;-76
2020/12/16 00:43:59;;;;;;;13.93;3.75;;;;;;;6.15;99.58;99838.44;6174723;23;20425;-76
2020/12/16 00:46:27;;;;;;;9.50;3.25;;;;;;;6.14;99.40;99842.31;6199701;23;20008;-76
2020/12/16 00:48:53;;;;;;;10.13;3.28;;;;;;;6.12;99.57;99844.50;6200009;23;20004;-76
2020/12/16 00:51:21;;;;;;;9.88;3.05;;;;;;;6.12;99.80;99844.50;6224382;23;20043;-76
2020/12/16 00:53:52;;;;;;;11.65;3.72;;;;;;;6.10;99.46;99843.97;6199844;23;20333;-77
2020/12/16 00:56:18;;;;;;;16.48;3.88;;;;;;;6.07;99.54;99837.06;6199228;23;20060;-77
2020/12/16 00:58:46;;;;;;;17.80;4.20;;;;;;;6.04;99.63;99843.16;6249225;23;20311;-77
2020/12/16 01:01:14;;;;;;;15.93;3.63;;;;;;;6.05;99.53;99839.31;6198813;23;20004;-76
2020/12/16 01:03:42;;;;;;;12.65;3.45;;;;;;;6.03;99.65;99836.81;6200077;23;20024;-77
2020/12/16 01:06:10;;;;;;;11.80;3.58;;;;;;;6.03;99.79;99834.06;6248690;23;20079;-77
2020/12/16 01:08:36;;;;;;;13.23;3.70;;;;;;;5.99;99.85;99832.97;6249464;23;20008;-77
2020/12/16 01:11:01;;;;;;;7.97;3.35;;;;;;;5.99;99.73;99832.97;6223089;23;20015;-77
2020/12/16 01:13:27;;;;;;;9.77;3.92;;;;;;;5.99;100.00;99832.97;6198977;23;20433;-77
2020/12/16 01:15:52;;;;;;;13.55;3.20;;;;;;;5.97;99.82;99818.66;6198865;23;20016;-76
2020/12/16 01:18:20;;;;;;;12.25;3.42;;;;;;;5.98;99.96;99834.06;6174420;23;20034;-77
2020/12/16 01:20:47;;;;;;;14.52;3.65;;;;;;;5.98;99.89;99838.75;6199084;23;20014;-76
2020/12/16 01:23:15;;;;;;;12.38;3.60;;;;;;;5.95;99.71;99823.59;6224192;23;20464;-77
2020/12/16 01:25:47;;;;;;;11.50;3.15;;;;;;;5.96;99.61;99822.53;6200979;23;20031;-76
2020/12/16 01:28:12;;;;;;;8.70;3.45;;;;;;;5.95;99.79;99823.59;6199554;23;20012;-77
2020/12/16 01:30:38;;;;;;;14.05;3.92;;;;;;;5.93;99.68;99803.75;6197777;23;20008;-76
2020/12/16 01:33:06;;;;;;;8.98;2.97;;;;;;;5.94;99.84;99816.44;6198869;23;20008;-77
2020/12/16 01:35:31;;;;;;;9.85;3.78;;;;;;;5.92;99.73;99824.13;6223634;23;20031;-77
2020/12/16 01:38:06;;;;;;;15.77;3.75;;;;;;;5.92;99.59;99823.31;6199789;23;20004;-77
2020/12/16 01:40:37;;;;;;;13.07;3.53;;;;;;;5.90;99.80;99820.81;6224210;23;20303;-77
2020/12/16 01:43:08;;;;;;;10.88;3.30;;;;;;;5.89;99.93;99819.19;6224916;23;20016;-77
2020/12/16 01:45:37;;;;;;;13.77;3.13;;;;;;;5.89;99.69;99821.94;6200195;23;20015;-77
2020/12/16 01:48:03;;;;;;;10.75;3.47;;;;;;;5.89;99.59;99826.63;6223978;23;20061;-77
2020/12/16 01:50:28;;;;;;;17.38;4.07;;;;;;;5.87;99.95;99826.09;6198388;23;20012;-77
2020/12/16 01:52:55;;;;;;;19.90;3.30;;;;;;;5.85;99.87;99829.13;6198560;23;20004;-77
2020/12/16 01:55:23;;;;;;;14.07;3.28;;;;;;;5.84;99.89;99827.47;6175380;23;20004;-77
2020/12/16 01:57:49;;;;;;;12.48;3.60;;;;;;;5.84;99.79;99821.94;6173007;23;20091;-77
2020/12/16 02:00:15;;;;;;;14.65;4.57;;;;;;;5.84;99.89;99827.47;6198178;23;20012;-77
2020/12/16 02:02:49;;;;;;;17.38;3.97;;;;;;;5.83;99.83;99834.09;6199001;23;20007;-77
2020/12/16 02:05:19;;;;;;;14.23;3.55;;;;;;;5.81;99.82;99828.03;6199839;23;20004;-77
2020/12/16 02:07:45;;;;;;;11.73;3.28;;;;;;;5.80;100.00;99831.91;6197804;23;20425;-77
2020/12/16 02:10:19;;;;;;;10.77;3.63;;;;;;;5.78;99.70;99818.38;6199873;23;20014;-77
2020/12/16 02:12:50;;;;;;;11.68;4.05;;;;;;;5.78;100.00;99828.59;6248406;22;20004;-77
2020/12/16 02:15:19;;;;;;;11.18;3.63;;;;;;;5.77;100.00;99835.22;6199663;23;20433;-77
2020/12/16 02:17:51;;;;;;;13.15;3.83;;;;;;;5.77;100.00;99826.94;6223578;23;20011;-77
2020/12/16 02:20:16;;;;;;;8.52;3.55;;;;;;;5.75;100.00;99823.63;6199703;23;20031;-77
2020/12/16 02:22:47;;;;;;;12.93;3.97;;;;;;;5.75;100.00;99827.22;6198555;23;20345;-77
2020/12/16 02:25:13;;;;;;;238.88;123.32;;;;;;;5.83;100.00;99837.66;6223570;23;20008;-76
2020/12/16 02:27:42;;;;;;;446.73;245.40;;;;;;;5.93;100.00;99822.19;6248300;23;20384;-78
2020/12/16 02:30:10;;;;;;;281.17;140.85;;;;;;;5.92;100.00;99817.81;6173377;23;20020;-78
2020/12/16 02:32:39;;;;;;;227.95;116.82;;;;;;;5.90;100.00;99817.25;6198351;23;20011;-78
2020/12/16 02:35:13;;;;;;;224.50;113.97;;;;;;;5.87;100.00;99810.38;6174813;23;20099;-78
2020/12/16 02:38:03;;;;;;;;;;;;;;;;;;;;;
2020/12/16 02:40:29;;;;;;;145.45;71.20;;;;;;;5.82;100.00;99805.72;6225986;23;20030;-77
2020/12/16 02:43:19;;;;;;;111.75;54.55;;;;;;;5.80;100.00;99796.91;6175117;23;20392;-77
2020/12/16 02:46:03;;;;;;;112.30;54.92;;;;;;;5.79;100.00;99798.00;6248159;23;20000;-78
2020/12/16 02:48:29;;;;;;;123.40;61.00;;;;;;;5.79;100.00;99789.75;6202288;23;20012;-77
2020/12/16 02:51:29;;;;;;;91.50;46.58;;;;;;;5.80;100.00;99794.13;6177224;23;20070;-78
2020/12/16 02:57:48;;;;;;;72.97;34.60;;;;;;;5.75;100.00;99785.88;6232182;23;20093;-78
2020/12/16 03:00:21;;;;;;;71.03;34.53;;;;;;;5.75;100.00;99790.56;6223619;23;20310;-78
2020/12/16 03:03:30;;;;;;;56.08;28.02;;;;;;;5.76;100.00;99778.44;6199290;23;20000;-77
2020/12/16 03:06:10;;;;;;;48.05;22.83;;;;;;;5.74;100.00;99775.97;6137826;23;20473;-76
2020/12/16 03:08:36;;;;;;;50.38;24.42;;;;;;;5.72;100.00;99780.94;6114267;23;20457;-77
2020/12/16 03:11:04;;;;;;;45.97;20.70;;;;;;;5.71;100.00;99776.53;6113112;23;20029;-78
2020/12/16 03:13:30;;;;;;;40.25;19.85;;;;;;;5.72;100.00;99772.66;6137018;23;20405;-77
2020/12/16 03:16:01;;;;;;;37.17;18.77;;;;;;;5.71;100.00;99775.69;6137368;23;20024;-77
2020/12/16 03:18:43;;;;;;;43.38;20.30;;;;;;;5.70;100.00;99766.59;6115929;23;20120;-77
2020/12/16 03:21:11;;;;;;;34.17;17.67;;;;;;;5.71;100.00;99765.53;6138975;23;20093;-77
2020/12/16 03:23:47;;;;;;;39.90;19.85;;;;;;;5.71;100.00;99761.91;6137919;23;20438;-78
2020/12/16 03:26:26;;;;;;;38.38;18.48;;;;;;;5.70;100.00;99761.09;6114021;23;20045;-78
2020/12/16 03:29:01;;;;;;;33.25;14.85;;;;;;;5.70;100.00;99752.00;6140245;23;20013;-78
2020/12/16 03:31:30;;;;;;;29.40;16.17;;;;;;;5.69;100.00;99750.38;6138266;23;20023;-78
2020/12/16 03:34:02;;;;;;;33.58;14.75;;;;;;;5.67;100.00;99744.31;6114864;23;20016;-77
2020/12/16 03:36:41;;;;;;;25.33;13.30;;;;;;;5.67;100.00;99756.16;6140392;23;20009;-78
2020/12/16 03:39:28;;;;;;;22.75;12.15;;;;;;;5.67;100.00;99756.16;6124152;23;20021;-78
2020/12/16 03:42:11;;;;;;;28.05;13.00;;;;;;;5.65;100.00;99750.09;6148478;23;20086;-77
2020/12/16 03:44:48;;;;;;;;;;;;;;;5.65;100.00;99741.81;6202430;23;20004;-78
2020/12/16 03:47:24;;;;;;;21.90;11.15;;;;;;;5.66;100.00;99737.97;6225517;23;19903;-78
2020/12/16 03:50:00;;;;;;;24.35;11.13;;;;;;;5.65;100.00;99729.97;6193164;23;20082;-78
2020/12/16 03:52:25;;;;;;;25.40;11.13;;;;;;;5.66;100.00;99731.66;6175941;23;20090;-77
2020/12/16 03:55:09;;;;;;;21.85;10.50;;;;;;;5.63;100.00;99726.69;6224717;23;20008;-77
2020/12/16 03:58:02;;;;;;;22.10;9.73;;;;;;;5.62;100.00;99714.84;6200192;23;20004;-77
2020/12/16 04:00:33;;;;;;;19.48;9.77;;;;;;;5.62;100.00;99712.09;6180368;23;20061;-77
2020/12/16 04:03:24;;;;;;;20.80;9.73;;;;;;;5.60;100.00;99712.38;6201429;23;20004;-78
2020/12/16 04:06:10;;;;;;;19.67;8.75;;;;;;;5.58;100.00;99720.09;6211331;23;20008;-77
2020/12/16 04:09:25;;;;;;;17.60;9.18;;;;;;;5.60;100.00;99728.91;6174936;23;20083;-77
2020/12/16 04:12:08;;;;;;;18.23;9.02;;;;;;;5.58;100.00;99714.59;6110333;23;20025;-78
2020/12/16 04:15:09;;;;;;;16.05;8.25;;;;;;;5.58;100.00;99719.28;6061667;23;20091;-78
2020/12/16 04:17:45;;;;;;;15.18;7.30;;;;;;;5.57;100.00;99706.59;6095579;23;20009;-77
2020/12/16 04:20:28;;;;;;;12.77;7.25;;;;;;;5.56;100.00;99691.19;6062728;23;20439;-78
2020/12/16 04:22:59;;;;;;;17.30;8.40;;;;;;;5.55;100.00;99693.13;6086652;23;20166;-78
2020/12/16 04:26:03;;;;;;;16.60;7.53;;;;;;;5.55;100.00;99681.28;6132546;23;20014;-77
2020/12/16 04:28:42;;;;;;;13.90;7.40;;;;;;;5.54;99.93;99685.97;6133285;23;20016;-78
2020/12/16 04:31:24;;;;;;;14.18;7.43;;;;;;;5.52;99.96;99684.59;6067468;23;20021;-77
2020/12/16 04:34:03;;;;;;;;;;;;;;;5.53;99.97;99683.47;6112246;23;20459;-78
2020/12/16 04:36:56;;;;;;;17.63;7.05;;;;;;;5.52;100.00;99682.66;6110157;23;19905;-77
2020/12/16 04:39:26;;;;;;;11.07;6.70;;;;;;;5.52;99.81;99684.59;6137915;23;20013;-78
2020/12/16 04:41:55;;;;;;;12.57;5.80;;;;;;;5.51;99.98;99696.69;6085797;23;20009;-77
2020/12/16 04:44:43;;;;;;;9.85;6.18;;;;;;;5.49;99.95;99694.25;6060632;23;20019;-78
2020/12/16 04:47:32;;;;;;;12.07;6.05;;;;;;;5.48;100.00;99698.09;6208385;23;20012;-77
2020/12/16 04:50:27;;;;;;;14.63;6.10;;;;;;;5.46;99.91;99700.31;6201577;23;20004;-78
2020/12/16 04:57:16;;;;;;;9.80;5.40;;;;;;;5.47;99.89;99712.97;6223105;23;20008;-78
2020/12/16 05:00:16;;;;;;;9.70;5.50;;;;;;;5.45;99.81;99706.91;6232297;23;20020;-78
2020/12/16 05:03:20;;;;;;;12.63;5.93;;;;;;;5.46;99.77;99704.97;6192351;23;20005;-78
2020/12/16 05:05:46;;;;;;;12.82;6.03;;;;;;;5.44;99.86;99713.53;6220841;23;20019;-77
2020/12/16 05:08:15;;;;;;;10.55;5.80;;;;;;;5.43;99.57;99700.84;6199093;23;20008;-77
2020/12/16 05:10:43;;;;;;;9.43;5.53;;;;;;;5.43;99.89;99700.03;6198363;23;20083;-77
2020/12/16 05:13:17;;;;;;;9.43;5.07;;;;;;;5.43;99.85;99697.28;6199154;22;20011;-77
2020/12/16 05:15:50;;;;;;;10.02;4.88;;;;;;;5.40;99.58;99695.91;6204047;23;20433;-77
2020/12/16 05:18:19;;;;;;;9.18;5.00;;;;;;;5.40;99.73;99703.34;6222323;23;20012;-77
2020/12/16 05:20:55;;;;;;;8.52;4.93;;;;;;;5.38;99.65;99692.63;6175218;23;20008;-77
2020/12/16 05:23:37;;;;;;;12.20;5.32;;;;;;;5.36;99.83;99689.31;6202759;23;20008;-77
2020/12/16 05:26:12;;;;;;;9.75;4.97;;;;;;;5.37;99.66;99679.94;6199378;23;20004;-77
2020/12/16 05:28:50;;;;;;;7.32;4.72;;;;;;;5.35;99.74;99682.16;6200779;23;20012;-77
2020/12/16 05:31:24;;;;;;;11.63;5.22;;;;;;;5.33;99.72;99679.69;6192548;23;20091;-77
2020/12/16 05:33:54;;;;;;;11.48;5.30;;;;;;;5.33;99.67;99670.59;6197888;23;20012;-77
2020/12/16 05:36:34;;;;;;;8.23;5.10;;;;;;;5.33;99.74;99674.19;6200373;23;20004;-77
2020/12/16 05:39:17;;;;;;;7.05;4.55;;;;;;;5.33;99.77;99679.69;6205170;23;20000;-77
2020/12/16 05:41:56;;;;;;;12.13;4.90;;;;;;;5.32;99.66;99677.19;6199210;23;20012;-78
2020/12/16 05:44:31;;;;;;;11.90;5.30;;;;;;;5.30;99.53;99671.97;6202292;23;20004;-77
2020/12/16 05:46:57;;;;;;;;;;;;;;;5.31;99.57;99675.56;6200528;23;20063;-77
2020/12/16 05:49:29;;;;;;;7.80;4.70;;;;;;;5.30;99.55;99669.22;6223583;23;20307;-77
2020/12/16 05:52:05;;;;;;;9.02;4.63;;;;;;;5.30;99.61;99674.75;6201125;23;20004;-73
2020/12/16 05:54:32;;;;;;;10.02;4.63;;;;;;;5.31;99.87;99672.81;6248783;23;20028;-73
2020/12/16 05:57:30;;;;;;;7.65;4.78;;;;;;;5.30;99.92;99662.91;6249644;22;20071;-73
2020/12/16 06:00:05;;;;;;;11.00;4.82;;;;;;;5.29;99.84;99661.25;6199332;22;20012;-73
2020/12/16 06:02:35;;;;;;;9.57;4.93;;;;;;;5.27;99.87;99655.22;6249605;22;20059;-73
2020/12/16 06:05:02;;;;;;;10.18;4.90;;;;;;;5.28;99.79;99637.56;6250298;22;20009;-73
2020/12/16 06:07:28;;;;;;;10.25;4.75;;;;;;;5.28;100.00;99643.91;6250594;22;20011;-73
2020/12/16 06:09:55;;;;;;;10.02;5.47;;;;;;;5.26;99.82;99648.03;6247995;23;20000;-73
2020/12/16 06:12:20;;;;;;;8.50;4.43;;;;;;;5.27;100.00;99660.72;6249717;22;20079;-73
2020/12/16 06:14:46;;;;;;;9.30;5.13;;;;;;;5.28;100.00;99659.59;6223322;23;20019;-73
2020/12/16 06:17:12;;;;;;;9.77;4.80;;;;;;;5.28;100.00;99662.34;6223788;23;20008;-73
2020/12/16 06:19:43;;;;;;;6.32;4.78;;;;;;;5.27;99.91;99664.28;6250051;22;20058;-73
2020/12/16 06:22:09;;;;;;;6.78;4.60;;;;;;;5.26;100.00;99659.88;6248561;23;20000;-73
2020/12/16 06:24:42;;;;;;;7.38;4.75;;;;;;;5.25;99.98;99658.22;6248197;23;20495;-73
2020/12/16 06:27:08;;;;;;;;;;;;;;;5.26;99.71;99664.56;6249347;22;20012;-73
2020/12/16 06:29:35;;;;;;;7.75;4.68;;;;;;;5.23;99.92;99656.84;6248647;23;19953;-73
2020/12/16 06:32:05;;;;;;;7.78;4.75;;;;;;;5.23;99.86;99654.09;6247446;23;20004;-73
2020/12/16 06:34:30;;;;;;;8.55;4.78;;;;;;;5.23;99.82;99665.13;6221916;23;20061;-73
2020/12/16 06:36:56;;;;;;;8.02;4.65;;;;;;;5.23;99.89;99662.34;6247490;23;20012;-73
2020/12/16 06:39:22;;;;;;;5.97;4.55;;;;;;;5.23;99.97;99656.84;6249196;22;20019;-73
2020/12/16 06:41:58;;;;;;;7.35;5.00;;;;;;;5.22;99.96;99666.22;6249380;22;20004;-73
2020/12/16 06:44:23;;;;;;;10.23;5.20;;;;;;;5.20;100.00;99663.75;6248669;23;20408;-73
2020/12/16 06:46:52;;;;;;;8.30;4.38;;;;;;;5.21;99.95;99667.31;6250648;22;20008;-73
2020/12/16 06:49:18;;;;;;;9.95;5.00;;;;;;;5.21;99.97;99664.56;6250084;22;20083;-73
2020/12/16 06:51:44;;;;;;;7.47;4.97;;;;;;;5.17;100.00;99667.06;6249759;22;20007;-73
2020/12/16 06:54:15;;;;;;;8.68;4.70;;;;;;;5.19;100.00;99661.28;6249659;22;20026;-72
2020/12/16 06:56:41;;;;;;;11.68;5.00;;;;;;;5.20;100.00;99663.75;6250007;23;20078;-73
2020/12/16 06:59:07;;;;;;;9.10;4.50;;;;;;;5.20;100.00;99669.25;6248416;23;20004;-73
2020/12/16 07:01:33;;;;;;;11.45;4.90;;;;;;;5.20;100.00;99673.94;6250028;22;20004;-73
2020/12/16 07:03:59;;;;;;;7.35;4.72;;;;;;;5.20;100.00;99668.44;6249355;23;20491;-73
2020/12/16 07:06:27;;;;;;;9.02;4.95;;;;;;;5.20;100.00;99674.75;6252264;22;20015;-72
2020/12/16 07:09:14;;;;;;;8.35;5.07;;;;;;;5.22;100.00;99682.75;6251976;22;20063;-72
2020/12/16 07:11:41;;;;;;;9.75;4.85;;;;;;;5.22;100.00;99666.22;6251279;22;20040;-73
2020/12/16 07:14:22;;;;;;;7.97;4.70;;;;;;;5.21;100.00;99670.06;6250329;22;20027;-73
2020/12/16 07:16:47;;;;;;;8.35;4.85;;;;;;;5.21;100.00;99664.56;6247794;23;20008;-73
2020/12/16 07:19:14;;;;;;;7.38;4.72;;;;;;;5.22;100.00;99663.47;6251549;22;20425;-73
2020/12/16 07:21:47;;;;;;;9.13;5.45;;;;;;;5.20;100.00;99658.22;6249989;22;20010;-74
2020/12/16 07:24:23;;;;;;;10.30;5.00;;;;;;;5.21;100.00;99664.56;6201642;23;20083;-75
2020/12/16 07:26:53;;;;;;;9.25;5.50;;;;;;;5.20;100.00;99669.25;6199998;23;20008;-75
2020/12/16 07:29:26;;;;;;;10.15;5.53;;;;;;;5.20;100.00;99658.22;6175490;23;20023;-74
2020/12/16 07:32:01;;;;;;;9.52;5.20;;;;;;;5.20;100.00;99662.94;6174885;23;20004;-74
2020/12/16 07:34:31;;;;;;;8.82;5.22;;;;;;;5.21;100.00;99661.81;6249696;23;20035;-74
2020/12/16 07:37:06;;;;;;;8.32;5.05;;;;;;;5.21;100.00;99659.06;6249391;23;20011;-74
2020/12/16 07:39:32;;;;;;;8.27;5.13;;;;;;;5.22;100.00;99661.53;6199737;23;20058;-75
2020/12/16 07:41:58;;;;;;;8.38;5.00;;;;;;;5.23;100.00;99659.59;6174658;23;20000;-74
2020/12/16 07:44:24;;;;;;;8.80;5.60;;;;;;;5.21;100.00;99656.31;6224971;23;20333;-74
2020/12/16 07:46:53;;;;;;;9.50;4.88;;;;;;;5.22;100.00;99657.97;6249231;23;20035;-75
2020/12/16 07:49:21;;;;;;;7.45;5.18;;;;;;;5.23;100.00;99656.84;6225170;23;20372;-75
2020/12/16 07:51:49;;;;;;;6.40;4.32;;;;;;;5.22;100.00;99660.72;6199898;23;20006;-74
2020/12/16 07:54:23;;;;;;;7.55;5.07;;;;;;;5.21;99.85;99664.56;6225407;23;20008;-74
2020/12/16 07:56:49;;;;;;;8.38;4.95;;;;;;;5.20;100.00;99657.41;6224141;23;20012;-72
2020/12/16 07:59:26;;;;;;;7.90;4.93;;;;;;;5.20;99.92;99658.22;6223958;23;20429;-78
2020/12/16 08:02:16;;;;;;;7.85;5.18;;;;;;;5.21;100.00;99659.91;6202694;23;20004;-77
2020/12/16 08:04:58;;;;;;;7.63;4.47;;;;;;;5.21;100.00;99659.91;6176575;23;20453;-78
2020/12/16 08:07:59;;;;;;;7.82;4.88;;;;;;;5.20;100.00;99658.22;6176138;23;20079;-78
2020/12/16 08:10:28;;;;;;;7.50;4.63;;;;;;;5.19;100.00;99659.34;6249354;23;20031;-78
2020/12/16 08:13:01;;;;;;;6.85;4.80;;;;;;;5.19;100.00;99655.78;6176147;23;20024;-78
2020/12/16 08:15:30;;;;;;;10.07;4.13;;;;;;;5.20;100.00;99657.41;6199441;23;20016;-78
2020/12/16 08:17:55;;;;;;;7.32;5.10;;;;;;;5.20;100.00;99658.22;6175594;23;20004;-77
2020/12/16 08:20:30;;;;;;;8.65;4.50;;;;;;;5.20;100.00;99658.22;6199147;23;20011;-77
2020/12/16 08:22:59;;;;;;;6.93;4.90;;;;;;;5.21;100.00;99659.91;6225271;23;20004;-77
2020/12/16 08:25:28;;;;;;;9.13;4.50;;;;;;;5.22;100.00;99652.47;6248989;23;20004;-77
2020/12/16 08:27:59;;;;;;;9.75;4.75;;;;;;;5.23;100.00;99656.84;6199664;23;20004;-77
2020/12/16 08:30:26;;;;;;;6.38;4.10;;;;;;;5.27;100.00;99658.78;6200072;23;20000;-76
2020/12/16 08:32:55;;;;;;;8.30;4.90;;;;;;;5.29;100.00;99650.22;6249200;23;20015;-77
2020/12/16 08:35:21;;;;;;;7.65;5.28;;;;;;;5.33;100.00;99652.16;6224195;23;20057;-77
2020/12/16 08:37:49;;;;;;;10.02;5.82;;;;;;;5.39;100.00;99661.22;6250017;23;20011;-76
2020/12/16 08:40:16;;;;;;;8.85;5.65;;;;;;;5.43;100.00;99667.78;6199011;23;20027;-77
2020/12/16 08:42:42;;;;;;;8.38;4.85;;;;;;;5.48;100.00;99665.03;6200477;23;20000;-77
2020/12/16 08:45:08;;;;;;;7.90;4.55;;;;;;;5.55;100.00;99665.56;6224352;23;20008;-78
2020/12/16 08:47:35;;;;;;;7.93;4.25;;;;;;;5.63;100.00;99649.53;6199753;23;20004;-77
2020/12/16 08:50:04;;;;;;;8.40;4.45;;;;;;;5.67;100.00;99664.41;6199830;23;20012;-77
2020/12/16 08:52:38;;;;;;;9.43;4.40;;;;;;;5.73;100.00;99650.31;6174854;23;20008;-77
2020/12/16 08:55:12;;;;;;;9.52;4.47;;;;;;;5.81;99.97;99670.97;6173696;23;20167;-76
2020/12/16 08:57:37;;;;;;;6.88;4.45;;;;;;;5.86;99.80;99662.69;6199035;23;20008;-77
2020/12/16 09:00:07;;;;;;;7.65;4.43;;;;;;;5.94;99.70;99666.81;6174729;23;20008;-76
2020/12/16 09:02:33;;;;;;;7.20;3.75;;;;;;;6.00;99.68;99662.91;6249375;23;20011;-77
2020/12/16 09:04:58;;;;;;;7.00;4.20;;;;;;;6.11;99.59;99669.19;6224172;23;20340;-76
2020/12/16 09:07:24;;;;;;;6.22;3.85;;;;;;;6.21;99.28;99672.72;6198853;23;20058;-76
2020/12/16 09:09:50;;;;;;;5.32;3.70;;;;;;;6.37;99.21;99667.06;6224074;23;20487;-76
2020/12/16 09:12:20;;;;;;;5.75;3.80;;;;;;;6.44;98.76;99667.59;6223644;23;20012;-77
2020/12/16 09:14:53;;;;;;;5.95;3.95;;;;;;;6.52;98.33;99669.75;6173815;23;20016;-77
2020/12/16 09:17:22;;;;;;;7.22;4.13;;;;;;;6.61;98.19;99658.91;6223812;23;20061;-77
2020/12/16 09:19:48;;;;;;;8.25;3.90;;;;;;;6.70;97.88;99679.25;6199902;23;20082;-77
2020/12/16 09:22:13;;;;;;;8.07;3.78;;;;;;;6.80;97.75;99667.28;6198927;23;20000;-77
2020/12/16 09:24:39;;;;;;;5.95;3.60;;;;;;;6.89;97.26;99671.91;6223345;23;20302;-77
2020/12/16 09:27:08;;;;;;;3.75;3.03;;;;;;;7.01;97.21;99662.41;6197915;23;20004;-77
2020/12/16 09:29:42;;;;;;;4.63;3.28;;;;;;;7.09;96.28;99665.34;6224049;23;20008;-77
2020/12/16 09:32:20;;;;;;;7.13;3.40;;;;;;;7.18;96.39;99662.78;6198105;23;20004;-77
2020/12/16 09:34:49;;;;;;;4.57;3.15;;;;;;;7.23;95.93;99664.66;6248706;23;20004;-75
2020/12/16 09:37:33;;;;;;;5.35;3.40;;;;;;;7.29;95.39;99666.25;6224213;23;20445;-75
2020/12/16 09:40:13;;;;;;;5.43;3.40;;;;;;;7.32;95.28;99666.47;6198565;23;20325;-75
2020/12/16 09:42:38;;;;;;;5.53;3.50;;;;;;;7.37;94.92;99660.09;6198948;23;20008;-75
2020/12/16 09:45:22;;;;;;;6.22;3.33;;;;;;;7.44;94.94;99656.97;6223802;23;20004;-75
2020/12/16 09:47:49;;;;;;;6.40;3.42;;;;;;;7.52;94.79;99672.88;6223511;23;20075;-75
2020/12/16 09:50:15;;;;;;;7.95;3.60;;;;;;;7.59;94.66;99674.19;6198493;23;20011;-75
2020/12/16 09:52:41;;;;;;;5.88;3.00;;;;;;;7.64;94.67;99658.69;6198998;23;20067;-75
2020/12/16 09:55:17;;;;;;;5.95;3.15;;;;;;;7.69;93.88;99666.88;6198141;23;20007;-77
2020/12/16 09:57:43;;;;;;;4.63;3.28;;;;;;;7.72;93.85;99672.66;6198817;23;20623;-77
2020/12/16 10:00:09;;;;;;;4.60;3.10;;;;;;;7.73;93.48;99685.34;6198649;23;20011;-77
2020/12/16 10:02:35;;;;;;;5.82;2.90;;;;;;;7.74;93.62;99698.03;6173641;23;20459;-77
2020/12/16 10:05:00;;;;;;;5.65;3.47;;;;;;;7.73;93.89;99695.59;6223865;23;20008;-77
2020/12/16 10:07:30;;;;;;;4.68;3.22;;;;;;;7.74;93.57;99714.63;6198564;23;20027;-77
2020/12/16 10:09:56;;;;;;;6.03;3.45;;;;;;;7.73;93.33;99721.28;6197852;23;20078;-77
2020/12/16 10:12:21;;;;;;;6.13;2.90;;;;;;;7.73;93.35;99728.75;6248544;23;20058;-77
2020/12/16 10:14:47;;;;;;;4.30;3.00;;;;;;;7.72;93.22;99730.72;6198579;23;20318;-77
2020/12/16 10:17:13;;;;;;;3.78;2.83;;;;;;;7.71;93.29;99723.50;6173772;23;20008;-77
2020/12/16 10:19:39;;;;;;;4.07;2.80;;;;;;;7.70;93.23;99723.81;6223605;23;20337;-77
2020/12/16 10:22:04;;;;;;;5.78;3.08;;;;;;;7.70;93.57;99729.34;6222968;23;20387;-76
2020/12/16 10:24:30;;;;;;;6.50;3.47;;;;;;;7.65;93.61;99721.94;6198531;23;20091;-75
2020/12/16 10:26:55;;;;;;;4.75;3.00;;;;;;;7.64;93.78;99720.28;6248424;23;20004;-75
2020/12/16 10:29:21;;;;;;;6.95;3.00;;;;;;;7.63;93.60;99721.41;6198123;23;20492;-75
2020/12/16 10:31:48;;;;;;;6.13;3.10;;;;;;;7.64;93.65;99717.53;6247810;23;20051;-74
2020/12/16 10:34:14;;;;;;;5.72;3.00;;;;;;;7.64;93.58;99716.72;6223511;23;20050;-75
2020/12/16 10:36:39;;;;;;;6.53;3.10;;;;;;;7.63;93.66;99718.63;6223687;23;20008;-75
2020/12/16 10:39:05;;;;;;;4.03;2.85;;;;;;;7.65;93.40;99705.34;6250233;23;20015;-74
2020/12/16 10:41:30;;;;;;;4.38;2.58;;;;;;;7.64;93.41;99703.72;6252064;22;20007;-75
2020/12/16 10:43:56;;;;;;;7.75;3.60;;;;;;;7.63;93.40;99691.00;6200264;23;20007;-74
2020/12/16 10:46:21;;;;;;;5.15;3.00;;;;;;;7.64;93.16;99692.66;6200419;23;20004;-74
2020/12/16 10:48:47;;;;;;;4.13;2.80;;;;;;;7.66;93.40;99697.88;6225637;23;20008;-74
2020/12/16 10:51:12;;;;;;;5.47;3.13;;;;;;;7.67;93.69;99697.59;6249950;23;20012;-74
2020/12/16 10:53:38;;;;;;;6.35;3.42;;;;;;;7.67;94.11;99702.31;6175927;23;20008;-75
2020/12/16 10:56:03;;;;;;;4.13;2.90;;;;;;;7.67;93.53;99697.59;6199974;23;20038;-75
2020/12/16 10:58:29;;;;;;;5.28;3.17;;;;;;;7.67;94.00;99703.13;6175009;23;20004;-75
2020/12/16 11:00:54;;;;;;;4.93;3.20;;;;;;;7.71;93.48;99701.41;6199901;23;20500;-76
2020/12/16 11:03:20;;;;;;;8.13;3.22;;;;;;;7.73;93.77;99690.88;6225770;23;20035;-77
2020/12/16 11:05:45;;;;;;;4.28;2.88;;;;;;;7.76;93.44;99700.53;6225715;23;20000;-77
2020/12/16 11:08:11;;;;;;;5.07;3.00;;;;;;;7.78;93.71;99704.66;6200329;23;20062;-77
2020/12/16 11:10:37;;;;;;;4.25;2.72;;;;;;;7.79;93.50;99695.22;6224181;23;20015;-77
2020/12/16 11:13:04;;;;;;;5.75;3.10;;;;;;;7.81;93.45;99693.00;6175139;23;20434;-77
2020/12/16 11:15:31;;;;;;;5.78;2.90;;;;;;;7.86;93.94;99710.66;6225722;23;20048;-77
2020/12/16 11:17:56;;;;;;;4.00;2.70;;;;;;;7.88;93.68;99703.69;6250435;23;20015;-77
2020/12/16 11:20:22;;;;;;;5.60;3.00;;;;;;;7.90;93.43;99700.63;6224745;23;20008;-77
2020/12/16 11:22:47;;;;;;;5.28;2.90;;;;;;;7.94;93.19;99709.97;6225262;23;20004;-77
2020/12/16 11:25:13;;;;;;;4.35;2.65;;;;;;;7.96;93.34;99704.97;6224369;23;20008;-77
2020/12/16 11:27:39;;;;;;;5.07;2.80;;;;;;;7.98;93.39;99703.56;6224985;23;20455;-76
2020/12/16 11:30:05;;;;;;;4.97;2.92;;;;;;;8.00;93.08;99700.50;6249246;23;20004;-77
2020/12/16 11:32:30;;;;;;;5.18;3.20;;;;;;;8.02;93.97;99698.25;6200257;23;20015;-77
2020/12/16 11:35:06;;;;;;;4.63;3.13;;;;;;;8.04;94.33;99698.78;6199769;23;20008;-77
2020/12/16 11:37:43;;;;;;;6.40;2.95;;;;;;;8.07;93.23;99707.31;6250000;23;20004;-77
2020/12/16 11:40:12;;;;;;;5.55;3.40;;;;;;;8.11;94.01;99690.09;6176050;23;20012;-77
2020/12/16 11:42:37;;;;;;;5.38;3.20;;;;;;;8.12;93.34;99698.13;6175620;23;20129;-77
2020/12/16 11:45:04;;;;;;;4.50;3.30;;;;;;;8.16;93.31;99699.19;6225463;23;20012;-78
2020/12/16 11:47:29;;;;;;;4.32;2.97;;;;;;;8.18;93.09;99701.66;6175178;23;20083;-77
2020/12/16 11:49:57;;;;;;;8.25;3.35;;;;;;;8.20;93.08;99693.88;6224110;23;20007;-77
2020/12/16 11:52:23;;;;;;;5.80;3.10;;;;;;;8.24;92.80;99701.25;6251563;22;20008;-77
2020/12/16 11:54:49;;;;;;;4.40;2.88;;;;;;;8.27;92.72;99688.78;6174706;23;20492;-77
2020/12/16 11:57:14;;;;;;;4.47;2.60;;;;;;;8.30;93.06;99704.78;6224866;23;20011;-77
2020/12/16 11:59:40;;;;;;;5.55;3.42;;;;;;;8.31;93.12;99698.16;6250131;23;20004;-78
2020/12/16 12:02:06;;;;;;;6.28;3.30;;;;;;;8.34;93.05;99696.72;6199723;23;20000;-77
2020/12/16 12:04:34;;;;;;;5.78;2.88;;;;;;;8.36;92.71;99697.22;6200231;23;20004;-78